RYR2116 LGIR-LGTS
Flight info
| Callsign | RYR2116 |
|---|---|
| Flight time | N/A |
| Altitude | 32000 |
| Route | EPALO M749 DIRMI UM749 SIGFO DCT BAMOS UL617 LEKPO |
| Aircraft | B738/M-SDE3FGILRWY/SB1 |
Departure
| Time | 2026-04-30 10:17 |
|---|---|
| Airport | Heraklion International Nikos Kazantzakis Airport (LGIR) |
Arrival
| Time | N/A |
|---|---|
| Airport | Thessaloniki Macedonia International Airport (LGTS) |
| Time | Latitude | Longitude | Altitude | Speed | Heading |
|---|---|---|---|---|---|
| 2026-04-30 09:51 | 35.33706 | 25.18172 | 98 ft | 0 kts | 179° |
| 2026-04-30 10:12 | 35.33704 | 25.18176 | 98 ft | 1 kts | 131° |
| 2026-04-30 10:13 | 35.33705 | 25.18183 | 98 ft | 2 kts | 89° |
| 2026-04-30 10:13 | 35.33713 | 25.18208 | 99 ft | 5 kts | 51° |
| 2026-04-30 10:13 | 35.33751 | 25.18247 | 100 ft | 10 kts | 45° |
| 2026-04-30 10:13 | 35.33815 | 25.18267 | 100 ft | 10 kts | 335° |
| 2026-04-30 10:14 | 35.33880 | 25.18278 | 94 ft | 10 kts | 46° |
| 2026-04-30 10:14 | 35.33885 | 25.18358 | 91 ft | 10 kts | 117° |
| 2026-04-30 10:14 | 35.33840 | 25.18520 | 94 ft | 12 kts | 98° |
| 2026-04-30 10:15 | 35.33831 | 25.18645 | 91 ft | 18 kts | 91° |
| 2026-04-30 10:15 | 35.33822 | 25.18818 | 93 ft | 22 kts | 96° |
| 2026-04-30 10:15 | 35.33849 | 25.19001 | 88 ft | 22 kts | 52° |
| 2026-04-30 10:15 | 35.33903 | 25.19039 | 88 ft | 3 kts | 301° |
| 2026-04-30 10:16 | 35.33908 | 25.18963 | 90 ft | 30 kts | 275° |
| 2026-04-30 10:16 | 35.33949 | 25.18389 | 88 ft | 104 kts | 275° |
| 2026-04-30 10:16 | 35.34027 | 25.17249 | 105 ft | 161 kts | 274° |
| 2026-04-30 10:17 | 35.34461 | 25.14540 | 1532 ft | 168 kts | 316° |
| 2026-04-30 10:17 | 35.36836 | 25.13982 | 2451 ft | 206 kts | 20° |
| 2026-04-30 10:17 | 35.38179 | 25.14701 | 2939 ft | 214 kts | 24° |
| 2026-04-30 10:18 | 35.39614 | 25.15199 | 3503 ft | 219 kts | 360° |
| 2026-04-30 10:18 | 35.41180 | 25.14847 | 3770 ft | 242 kts | 343° |
| 2026-04-30 10:18 | 35.42846 | 25.14130 | 4124 ft | 262 kts | 340° |
| 2026-04-30 10:19 | 35.46257 | 25.12531 | 5766 ft | 267 kts | 339° |
| 2026-04-30 10:19 | 35.48008 | 25.11715 | 6574 ft | 270 kts | 339° |
| 2026-04-30 10:19 | 35.49775 | 25.10900 | 7365 ft | 273 kts | 339° |
| 2026-04-30 10:19 | 35.51564 | 25.10081 | 8117 ft | 276 kts | 339° |
| 2026-04-30 10:20 | 35.53379 | 25.09254 | 8914 ft | 279 kts | 339° |
| 2026-04-30 10:20 | 35.57060 | 25.07584 | 10405 ft | 288 kts | 338° |
| 2026-04-30 10:20 | 35.59012 | 25.06699 | 10600 ft | 312 kts | 338° |
| 2026-04-30 10:21 | 35.61117 | 25.05745 | 10861 ft | 330 kts | 338° |
| 2026-04-30 10:21 | 35.63303 | 25.04756 | 11440 ft | 337 kts | 338° |
| 2026-04-30 10:21 | 35.65515 | 25.03756 | 12178 ft | 340 kts | 338° |
| 2026-04-30 10:21 | 35.67745 | 25.02748 | 12932 ft | 343 kts | 338° |
| 2026-04-30 10:22 | 35.69993 | 25.01729 | 13697 ft | 346 kts | 338° |
| 2026-04-30 10:22 | 35.72268 | 25.00696 | 14396 ft | 350 kts | 338° |
| 2026-04-30 10:22 | 35.74556 | 24.99632 | 15129 ft | 353 kts | 337° |
| 2026-04-30 10:22 | 35.76853 | 24.98552 | 15869 ft | 355 kts | 337° |
| 2026-04-30 10:23 | 35.79175 | 24.97458 | 16594 ft | 359 kts | 337° |
| 2026-04-30 10:23 | 35.81516 | 24.96355 | 17313 ft | 362 kts | 337° |
| 2026-04-30 10:23 | 35.83878 | 24.95242 | 18019 ft | 365 kts | 337° |
| 2026-04-30 10:23 | 35.86263 | 24.94120 | 18668 ft | 369 kts | 337° |
| 2026-04-30 10:24 | 35.88670 | 24.92987 | 19276 ft | 372 kts | 337° |
| 2026-04-30 10:24 | 35.91099 | 24.91843 | 19883 ft | 375 kts | 337° |
| 2026-04-30 10:24 | 35.93545 | 24.90691 | 20467 ft | 378 kts | 336° |
| 2026-04-30 10:24 | 35.96017 | 24.89525 | 21055 ft | 382 kts | 336° |
| 2026-04-30 10:25 | 35.98506 | 24.88351 | 21641 ft | 385 kts | 336° |
| 2026-04-30 10:25 | 36.01018 | 24.87166 | 22198 ft | 388 kts | 336° |
| 2026-04-30 10:25 | 36.03557 | 24.85966 | 22747 ft | 392 kts | 336° |
| 2026-04-30 10:25 | 36.06113 | 24.84758 | 23292 ft | 395 kts | 336° |
| 2026-04-30 10:26 | 36.08695 | 24.83535 | 23795 ft | 399 kts | 336° |
| 2026-04-30 10:26 | 36.11291 | 24.82304 | 24275 ft | 401 kts | 336° |
| 2026-04-30 10:26 | 36.13897 | 24.81067 | 24755 ft | 403 kts | 336° |
| 2026-04-30 10:26 | 36.16522 | 24.79820 | 25217 ft | 405 kts | 336° |
| 2026-04-30 10:27 | 36.19157 | 24.78567 | 25676 ft | 407 kts | 336° |
| 2026-04-30 10:27 | 36.21808 | 24.77306 | 26110 ft | 409 kts | 336° |
| 2026-04-30 10:27 | 36.24474 | 24.76036 | 26561 ft | 411 kts | 336° |
| 2026-04-30 10:27 | 36.27134 | 24.74770 | 27150 ft | 409 kts | 336° |
| 2026-04-30 10:28 | 36.29781 | 24.73509 | 27794 ft | 405 kts | 335° |
| 2026-04-30 10:28 | 36.32370 | 24.72275 | 28390 ft | 403 kts | 335° |
| 2026-04-30 10:28 | 36.35019 | 24.71011 | 28943 ft | 403 kts | 335° |
| 2026-04-30 10:28 | 36.37631 | 24.69763 | 29492 ft | 402 kts | 335° |
| 2026-04-30 10:29 | 36.40231 | 24.68519 | 30081 ft | 399 kts | 335° |
| 2026-04-30 10:29 | 36.42815 | 24.67283 | 30559 ft | 398 kts | 335° |
| 2026-04-30 10:29 | 36.45397 | 24.66047 | 30999 ft | 397 kts | 335° |
| 2026-04-30 10:29 | 36.47938 | 24.64828 | 31399 ft | 397 kts | 335° |
| 2026-04-30 10:30 | 36.50513 | 24.63593 | 31807 ft | 396 kts | 335° |
| 2026-04-30 10:30 | 36.53088 | 24.62357 | 32050 ft | 398 kts | 335° |
| 2026-04-30 10:30 | 36.58242 | 24.59881 | 32047 ft | 395 kts | 335° |
| 2026-04-30 10:31 | 36.63377 | 24.57410 | 32064 ft | 396 kts | 335° |
| 2026-04-30 10:31 | 36.68520 | 24.54931 | 32056 ft | 397 kts | 335° |
| 2026-04-30 10:32 | 36.73677 | 24.52444 | 32058 ft | 398 kts | 335° |
| 2026-04-30 10:32 | 36.78714 | 24.49629 | 32059 ft | 396 kts | 330° |
| 2026-04-30 10:33 | 36.83633 | 24.46540 | 32046 ft | 396 kts | 330° |
| 2026-04-30 10:33 | 36.88544 | 24.43448 | 32046 ft | 395 kts | 330° |
| 2026-04-30 10:34 | 36.93461 | 24.40381 | 32051 ft | 395 kts | 330° |
| 2026-04-30 10:34 | 36.98379 | 24.37327 | 32049 ft | 395 kts | 330° |
| 2026-04-30 10:35 | 37.03295 | 24.34275 | 32053 ft | 394 kts | 330° |
| 2026-04-30 10:35 | 37.08214 | 24.31217 | 32052 ft | 395 kts | 330° |
| 2026-04-30 10:36 | 37.13131 | 24.28156 | 32050 ft | 395 kts | 330° |
| 2026-04-30 10:36 | 37.17220 | 24.25606 | 32051 ft | 395 kts | 330° |
| 2026-04-30 10:37 | 37.22148 | 24.22530 | 32052 ft | 396 kts | 330° |
| 2026-04-30 10:37 | 37.27913 | 24.18924 | 32050 ft | 396 kts | 330° |
| 2026-04-30 10:38 | 37.31931 | 24.16408 | 32050 ft | 397 kts | 330° |
| 2026-04-30 10:38 | 37.36874 | 24.13309 | 32049 ft | 397 kts | 330° |
| 2026-04-30 10:39 | 37.41825 | 24.10199 | 32049 ft | 398 kts | 330° |
| 2026-04-30 10:39 | 37.46778 | 24.07084 | 32050 ft | 398 kts | 330° |
| 2026-04-30 10:40 | 37.51734 | 24.03963 | 32051 ft | 398 kts | 330° |
| 2026-04-30 10:40 | 37.56689 | 24.00837 | 32056 ft | 399 kts | 330° |
| 2026-04-30 10:41 | 37.61651 | 23.97702 | 32056 ft | 399 kts | 330° |
| 2026-04-30 10:41 | 37.66613 | 23.94562 | 32057 ft | 399 kts | 330° |
| 2026-04-30 10:42 | 37.71580 | 23.91415 | 32044 ft | 400 kts | 331° |
| 2026-04-30 10:42 | 37.76524 | 23.88277 | 32047 ft | 400 kts | 331° |
| 2026-04-30 10:43 | 37.81503 | 23.85112 | 32056 ft | 400 kts | 331° |
| 2026-04-30 10:43 | 37.83157 | 23.84060 | 32056 ft | 400 kts | 331° |
| 2026-04-30 10:44 | 37.87219 | 23.81512 | 32041 ft | 401 kts | 335° |
| 2026-04-30 10:44 | 37.92646 | 23.79737 | 32049 ft | 406 kts | 351° |
| 2026-04-30 10:45 | 37.98235 | 23.79002 | 32058 ft | 406 kts | 352° |
| 2026-04-30 10:45 | 38.03865 | 23.78265 | 32038 ft | 406 kts | 351° |